createdAt,value
2022-12-23T00:01:22.291Z,2.30
2022-12-23T00:03:49.146Z,2.97
2022-12-23T00:06:16.691Z,5.75
2022-12-23T00:08:43.573Z,4.85
2022-12-23T00:11:17.864Z,1.40
2022-12-23T00:14:03.076Z,1.85
2022-12-23T00:16:29.959Z,3.88
2022-12-23T00:18:56.779Z,2.03
2022-12-23T00:21:23.645Z,3.33
2022-12-23T00:23:50.997Z,2.97
2022-12-23T00:26:25.282Z,2.88
2022-12-23T00:28:52.598Z,1.70
2022-12-23T00:31:19.651Z,2.70
2022-12-23T00:33:47.743Z,3.45
2022-12-23T00:36:17.555Z,2.75
2022-12-23T00:39:03.001Z,6.40
2022-12-23T00:41:48.657Z,3.03
2022-12-23T00:44:15.546Z,4.10
2022-12-23T00:46:42.319Z,2.03
2022-12-23T00:49:29.856Z,1.92
2022-12-23T00:51:56.544Z,2.42
2022-12-23T00:54:23.440Z,1.83
2022-12-23T00:56:50.178Z,2.42
2022-12-23T00:59:17.211Z,3.33
2022-12-23T01:02:02.650Z,2.55
2022-12-23T01:04:47.949Z,0.93
2022-12-23T01:07:14.675Z,2.30
2022-12-23T01:09:41.399Z,3.63
2022-12-23T01:12:08.067Z,3.28
2022-12-23T01:14:35.003Z,1.35
2022-12-23T01:17:01.845Z,2.53
2022-12-23T01:19:28.997Z,3.45
2022-12-23T01:21:55.730Z,1.20
2022-12-23T01:24:22.546Z,1.17
2022-12-23T01:26:49.243Z,1.88
2022-12-23T01:29:15.961Z,2.88
2022-12-23T01:31:42.731Z,1.48
2022-12-23T01:34:10.441Z,2.17
2022-12-23T01:36:40.090Z,1.38
2022-12-23T01:39:06.826Z,4.03
2022-12-23T01:41:52.129Z,1.67
2022-12-23T01:44:48.467Z,6.47
2022-12-23T01:47:18.098Z,1.33
2022-12-23T01:49:45.005Z,4.65
2022-12-23T01:52:11.786Z,1.35
2022-12-23T01:54:38.583Z,0.70
2022-12-23T01:57:05.341Z,1.10
2022-12-23T01:59:54.227Z,4.03
2022-12-23T02:02:40.003Z,1.42
2022-12-23T02:05:07.551Z,0.65
2022-12-23T02:07:52.788Z,3.13
2022-12-23T02:10:19.495Z,0.70
2022-12-23T02:13:16.831Z,0.40
2022-12-23T02:16:12.093Z,0.50
2022-12-23T02:18:44.924Z,0.75
2022-12-23T02:21:29.373Z,0.80
2022-12-23T02:24:26.263Z,0.73
2022-12-23T02:27:05.947Z,1.40
2022-12-23T02:30:06.567Z,0.80
2022-12-23T02:33:06.126Z,2.08
2022-12-23T02:35:59.741Z,0.65
2022-12-23T02:38:30.826Z,1.45
2022-12-23T02:41:19.540Z,1.02
2022-12-23T02:43:50.247Z,3.80
2022-12-23T02:46:41.434Z,2.80
2022-12-23T02:49:09.583Z,1.52
2022-12-23T02:51:38.572Z,2.20
2022-12-23T02:54:08.190Z,3.88
2022-12-23T02:56:35.432Z,1.58
2022-12-23T02:59:37.789Z,2.65
2022-12-23T03:02:04.721Z,1.52
2022-12-23T03:04:32.110Z,4.10
2022-12-23T03:07:04.473Z,0.75
2022-12-23T03:09:42.940Z,2.22
2022-12-23T03:12:22.954Z,1.13
2022-12-23T03:14:59.722Z,2.25
2022-12-23T03:17:35.984Z,1.40
2022-12-23T03:20:19.377Z,0.80
2022-12-23T03:23:13.084Z,0.50
2022-12-23T03:25:48.071Z,0.53
2022-12-23T03:28:31.333Z,3.15
2022-12-23T03:30:58.708Z,0.93
2022-12-23T03:33:36.793Z,2.60
2022-12-23T03:36:25.810Z,0.40
2022-12-23T03:38:53.033Z,1.85
2022-12-23T03:41:25.213Z,1.02
2022-12-23T03:43:57.010Z,1.35
2022-12-23T03:46:31.309Z,0.93
2022-12-23T03:49:03.207Z,0.40
2022-12-23T03:51:33.002Z,1.42
2022-12-23T03:54:01.791Z,1.48
2022-12-23T03:56:38.595Z,2.95
2022-12-23T03:59:18.417Z,1.17
2022-12-23T04:01:52.284Z,1.20
2022-12-23T04:05:03.771Z,0.50
2022-12-23T04:08:05.847Z,1.17
2022-12-23T04:10:32.567Z,0.50
2022-12-23T04:12:59.276Z,0.40
2022-12-23T04:15:26.697Z,0.47
2022-12-23T04:17:54.771Z,1.15
2022-12-23T04:20:21.658Z,0.38
2022-12-23T04:22:49.046Z,1.52
2022-12-23T04:25:16.906Z,1.15
2022-12-23T04:27:43.744Z,2.38
2022-12-23T04:30:12.702Z,0.57
2022-12-23T04:32:39.861Z,0.45
2022-12-23T04:35:06.886Z,0.40
2022-12-23T04:37:34.300Z,0.98
2022-12-23T04:40:01.581Z,3.97
2022-12-23T04:42:28.312Z,1.38
2022-12-23T04:44:55.074Z,1.60
2022-12-23T04:47:21.756Z,1.55
2022-12-23T04:49:48.572Z,0.47
2022-12-23T04:52:15.286Z,1.20
2022-12-23T04:54:46.035Z,0.35
2022-12-23T04:57:13.594Z,0.38
2022-12-23T04:59:40.322Z,0.40
2022-12-23T05:02:07.960Z,0.40
2022-12-23T05:04:34.871Z,2.05
2022-12-23T05:07:03.069Z,3.05
2022-12-23T05:09:29.823Z,0.68
2022-12-23T05:11:56.551Z,0.80
2022-12-23T05:14:23.322Z,2.60
2022-12-23T05:16:51.191Z,1.52
2022-12-23T05:19:17.966Z,1.50
2022-12-23T05:21:44.772Z,0.45
2022-12-23T05:24:11.714Z,0.30
2022-12-23T05:26:38.497Z,0.75
2022-12-23T05:29:06.196Z,0.40
2022-12-23T05:31:33.268Z,1.52
2022-12-23T05:34:05.984Z,1.15
2022-12-23T05:36:33.289Z,0.30
2022-12-23T05:38:59.995Z,0.40
2022-12-23T05:41:26.749Z,0.30
2022-12-23T05:43:55.823Z,1.27
2022-12-23T05:46:26.613Z,0.85
2022-12-23T05:48:54.569Z,0.38
2022-12-23T05:51:21.357Z,1.67
2022-12-23T05:53:50.131Z,0.73
2022-12-23T05:56:16.905Z,0.55
2022-12-23T05:58:43.661Z,3.30
2022-12-23T06:01:13.231Z,3.38
2022-12-23T06:03:39.976Z,0.50
2022-12-23T06:06:08.335Z,1.48
2022-12-23T06:08:35.029Z,0.95
2022-12-23T06:11:04.878Z,0.43
2022-12-23T06:13:31.598Z,2.78
2022-12-23T06:15:58.276Z,0.30
2022-12-23T06:18:25.092Z,1.35
2022-12-23T06:20:51.855Z,4.30
2022-12-23T06:23:18.644Z,1.85
2022-12-23T06:25:45.382Z,0.82
2022-12-23T06:28:13.155Z,2.00
2022-12-23T06:30:39.870Z,2.55
2022-12-23T06:33:06.591Z,2.40
2022-12-23T06:35:33.413Z,3.47
2022-12-23T06:38:00.145Z,5.28
2022-12-23T06:40:28.974Z,2.90
2022-12-23T06:42:56.693Z,2.65
2022-12-23T06:45:23.379Z,1.13
2022-12-23T06:47:50.874Z,5.05
2022-12-23T06:50:17.752Z,2.17
2022-12-23T06:52:45.358Z,3.13
2022-12-23T06:55:12.105Z,8.27
2022-12-23T06:57:38.864Z,7.32
2022-12-23T07:00:06.433Z,8.07
2022-12-23T07:02:33.418Z,4.28
2022-12-23T07:05:00.218Z,7.50
2022-12-23T07:07:26.974Z,3.30
2022-12-23T07:09:54.268Z,2.42
2022-12-23T07:12:21.172Z,2.55
2022-12-23T07:14:49.317Z,2.40
2022-12-23T07:17:16.372Z,5.63
2022-12-23T07:19:43.133Z,1.30
2022-12-23T07:22:10.327Z,2.03
2022-12-23T07:24:37.776Z,4.88
2022-12-23T07:27:05.003Z,4.80
2022-12-23T07:29:32.213Z,2.80
2022-12-23T07:31:59.116Z,1.13
2022-12-23T07:34:25.898Z,3.00
2022-12-23T07:36:52.653Z,2.03
2022-12-23T07:39:19.704Z,1.90
2022-12-23T07:41:46.562Z,3.10
2022-12-23T07:44:13.505Z,6.00
2022-12-23T07:46:40.327Z,2.40
2022-12-23T07:49:07.088Z,3.05
2022-12-23T07:51:35.220Z,8.77
2022-12-23T07:54:01.947Z,3.78
2022-12-23T07:56:28.765Z,5.30
2022-12-23T07:58:55.740Z,2.42
2022-12-23T08:01:22.565Z,5.65
2022-12-23T08:03:49.450Z,4.18
2022-12-23T08:06:16.684Z,1.52
2022-12-23T08:08:44.419Z,4.38
2022-12-23T08:11:11.696Z,2.53
2022-12-23T08:13:40.700Z,2.28
2022-12-23T08:16:08.194Z,6.30
2022-12-23T08:18:36.727Z,2.83
2022-12-23T08:21:19.070Z,3.08
2022-12-23T08:23:48.955Z,1.73
2022-12-23T08:26:23.073Z,3.47
2022-12-23T08:28:53.443Z,4.68
2022-12-23T08:31:21.662Z,3.30
2022-12-23T08:33:50.885Z,4.22
2022-12-23T08:36:24.009Z,7.88
2022-12-23T08:38:52.315Z,3.83
2022-12-23T08:41:22.226Z,4.35
2022-12-23T08:43:50.148Z,5.28
2022-12-23T08:46:17.155Z,5.05
2022-12-23T08:48:49.087Z,4.40
2022-12-23T08:51:17.184Z,9.95
2022-12-23T08:53:44.390Z,7.60
2022-12-23T08:56:14.960Z,4.43
2022-12-23T08:58:43.877Z,2.75
2022-12-23T09:01:11.561Z,1.38
2022-12-23T09:03:38.646Z,1.70
2022-12-23T09:06:11.181Z,3.75
2022-12-23T09:08:38.177Z,1.92
2022-12-23T09:11:05.126Z,0.75
2022-12-23T09:13:35.573Z,1.42
2022-12-23T09:16:02.890Z,0.93
2022-12-23T09:18:31.280Z,2.47
2022-12-23T09:21:02.122Z,2.05
2022-12-23T09:23:28.875Z,2.47
2022-12-23T09:25:55.669Z,2.83
2022-12-23T09:28:22.581Z,2.05
2022-12-23T09:30:49.508Z,1.65
2022-12-23T09:33:17.224Z,1.88
2022-12-23T09:35:44.343Z,2.67
2022-12-23T09:38:11.239Z,1.55
2022-12-23T09:40:40.136Z,0.80
2022-12-23T09:43:27.822Z,1.05
2022-12-23T09:46:09.713Z,3.90
2022-12-23T09:48:42.894Z,5.55
2022-12-23T09:51:09.593Z,0.80
2022-12-23T09:53:57.491Z,1.10
2022-12-23T09:56:46.075Z,1.95
2022-12-23T09:59:33.916Z,1.70
2022-12-23T10:02:30.308Z,1.63
2022-12-23T10:05:00.202Z,2.47
2022-12-23T10:07:37.305Z,1.45
2022-12-23T10:10:27.474Z,1.63
2022-12-23T10:12:54.302Z,3.13
2022-12-23T10:15:26.035Z,5.20
2022-12-23T10:17:54.966Z,4.07
2022-12-23T10:20:30.327Z,2.95
2022-12-23T10:22:57.031Z,0.95
2022-12-23T10:25:28.576Z,1.67
2022-12-23T10:27:55.525Z,2.35
2022-12-23T10:33:13.259Z,2.88
2022-12-23T10:36:01.597Z,1.23
2022-12-23T10:38:58.998Z,1.15
2022-12-23T10:41:47.261Z,3.35
2022-12-23T10:44:47.267Z,1.80
2022-12-23T10:47:24.576Z,2.03
2022-12-23T10:50:17.246Z,1.13
2022-12-23T10:52:44.418Z,0.85
2022-12-23T10:55:32.904Z,1.67
2022-12-23T10:58:18.247Z,1.90
2022-12-23T11:00:48.270Z,2.08
2022-12-23T11:03:28.890Z,0.65
2022-12-23T11:05:56.026Z,1.42
2022-12-23T11:08:22.928Z,3.85
2022-12-23T11:10:49.899Z,3.03
2022-12-23T11:13:37.346Z,0.68
2022-12-23T11:16:17.393Z,2.58
2022-12-23T11:18:54.562Z,3.28
2022-12-23T11:21:21.273Z,3.08
2022-12-23T11:23:48.053Z,2.03
2022-12-23T11:26:18.687Z,1.33
2022-12-23T11:29:04.183Z,1.10
2022-12-23T11:31:35.276Z,2.05
2022-12-23T11:34:04.566Z,1.42
2022-12-23T11:36:31.642Z,14.85
2022-12-23T11:39:01.283Z,6.57
2022-12-23T11:41:29.107Z,2.00
2022-12-23T11:43:58.943Z,2.63
2022-12-23T11:46:28.283Z,6.43
2022-12-23T11:49:18.169Z,2.78
2022-12-23T11:52:10.740Z,3.17
2022-12-23T11:54:38.181Z,4.47
2022-12-23T11:57:07.768Z,4.55
2022-12-23T11:59:39.769Z,4.15
2022-12-23T12:02:20.312Z,6.18
2022-12-23T12:05:07.146Z,5.47
2022-12-23T12:07:34.011Z,6.22
2022-12-23T12:10:00.991Z,3.00
2022-12-23T12:12:28.087Z,6.63
2022-12-23T12:14:56.970Z,3.40
2022-12-23T12:17:43.541Z,8.18
2022-12-23T12:20:17.698Z,6.00
2022-12-23T12:22:59.464Z,5.85
2022-12-23T12:25:40.008Z,8.73
2022-12-23T12:28:10.977Z,7.22
2022-12-23T12:30:40.198Z,6.13
2022-12-23T12:33:23.101Z,8.25
2022-12-23T12:36:01.711Z,10.07
2022-12-23T12:38:32.635Z,6.63
2022-12-23T12:41:03.053Z,5.38
2022-12-23T12:43:37.898Z,6.18
2022-12-23T12:46:32.674Z,5.18
2022-12-23T12:49:04.765Z,5.28
2022-12-23T12:51:43.501Z,3.83
2022-12-23T12:54:22.459Z,3.38
2022-12-23T12:56:51.406Z,4.55
2022-12-23T12:59:21.754Z,5.47
2022-12-23T13:02:15.926Z,7.82
2022-12-23T13:05:08.063Z,8.88
2022-12-23T13:07:46.611Z,13.52
2022-12-23T13:10:19.256Z,18.00
2022-12-23T13:13:30.881Z,4.60
2022-12-23T13:16:07.359Z,10.50
2022-12-23T13:18:37.175Z,5.35
2022-12-23T13:21:24.253Z,7.43
2022-12-23T13:24:10.053Z,7.35
2022-12-23T13:27:13.114Z,8.40
2022-12-23T13:29:46.141Z,14.77
2022-12-23T13:32:20.067Z,10.07
2022-12-23T13:35:02.306Z,10.73
2022-12-23T13:37:58.055Z,9.57
2022-12-23T13:40:24.812Z,9.82
2022-12-23T13:42:55.002Z,7.47
2022-12-23T13:45:21.791Z,7.43
2022-12-23T13:47:59.659Z,8.45
2022-12-23T13:50:55.624Z,6.85
2022-12-23T13:53:40.021Z,12.88
2022-12-23T13:56:17.242Z,10.10
2022-12-23T13:58:45.299Z,17.20
2022-12-23T14:01:12.052Z,11.77
2022-12-23T14:03:39.493Z,10.73
2022-12-23T14:06:22.180Z,6.78
2022-12-23T14:08:50.719Z,5.20
2022-12-23T14:11:28.631Z,10.65
2022-12-23T14:14:05.654Z,8.02
2022-12-23T14:16:32.520Z,8.63
2022-12-23T14:19:08.486Z,8.57
2022-12-23T14:21:48.585Z,11.23
2022-12-23T14:24:27.277Z,7.30
2022-12-23T14:27:32.617Z,7.50
2022-12-23T14:30:09.593Z,11.50
2022-12-23T14:33:03.543Z,7.07
2022-12-23T14:35:38.591Z,8.25
2022-12-23T14:38:16.085Z,17.75
2022-12-23T14:43:55.562Z,12.35
2022-12-23T14:46:37.160Z,15.55
2022-12-23T14:49:36.880Z,7.88
2022-12-23T14:51:51.208Z,9.23
2022-12-23T14:54:18.639Z,12.40
2022-12-23T14:57:04.841Z,14.23
2022-12-23T15:00:02.072Z,10.27
2022-12-23T15:02:37.098Z,16.90
2022-12-23T15:05:04.180Z,14.40
2022-12-23T15:07:38.615Z,18.13
2022-12-23T15:10:20.237Z,12.10
2022-12-23T15:12:48.405Z,19.38
2022-12-23T15:15:23.509Z,18.92
2022-12-23T15:18:01.433Z,13.73
2022-12-23T15:20:28.176Z,11.25
2022-12-23T15:22:59.918Z,11.02
2022-12-23T15:25:27.766Z,18.70
2022-12-23T15:28:01.208Z,16.65
2022-12-23T15:30:30.299Z,17.77
2022-12-23T15:33:01.909Z,9.48
2022-12-23T15:35:33.369Z,10.73
2022-12-23T15:38:00.911Z,5.93
2022-12-23T15:40:29.299Z,9.23
2022-12-23T15:42:56.218Z,12.85
2022-12-23T15:45:22.893Z,12.48
2022-12-23T15:47:49.971Z,16.38
2022-12-23T15:50:17.733Z,11.40
2022-12-23T15:52:45.406Z,14.52
2022-12-23T15:55:23.717Z,10.95
2022-12-23T15:57:50.928Z,11.48
2022-12-23T16:00:39.280Z,13.93
2022-12-23T16:03:10.402Z,7.15
2022-12-23T16:05:43.157Z,12.32
2022-12-23T16:08:10.695Z,9.68
2022-12-23T16:10:37.592Z,11.40
2022-12-23T16:13:04.349Z,11.27
2022-12-23T16:15:32.628Z,6.28
2022-12-23T16:18:34.395Z,14.57
2022-12-23T16:21:02.134Z,9.77
2022-12-23T16:23:32.972Z,11.75
2022-12-23T16:26:00.324Z,6.35
2022-12-23T16:28:38.539Z,13.52
2022-12-23T16:31:06.830Z,7.40
2022-12-23T16:33:37.555Z,9.32
2022-12-23T16:36:26.464Z,6.20
2022-12-23T16:38:56.024Z,10.98
2022-12-23T16:41:22.966Z,10.23
2022-12-23T16:43:52.727Z,10.35
2022-12-23T16:46:20.961Z,14.60
2022-12-23T16:48:53.060Z,14.52
2022-12-23T16:51:22.437Z,11.38
2022-12-23T16:53:55.087Z,11.07
2022-12-23T16:56:23.521Z,11.30
2022-12-23T16:58:50.268Z,13.63
2022-12-23T17:01:20.219Z,9.13
2022-12-23T17:03:47.074Z,9.15
2022-12-23T17:06:14.740Z,10.68
2022-12-23T17:08:41.728Z,9.98
2022-12-23T17:11:15.061Z,10.55
2022-12-23T17:13:42.046Z,8.02
2022-12-23T17:16:16.115Z,16.92
2022-12-23T17:21:30.545Z,7.88
2022-12-23T17:24:11.866Z,8.00
2022-12-23T17:26:38.710Z,17.63
2022-12-23T17:29:06.094Z,10.35
2022-12-23T17:31:33.326Z,18.25
2022-12-23T17:34:01.894Z,15.43
2022-12-23T17:36:28.964Z,18.55
2022-12-23T17:38:58.378Z,10.73
2022-12-23T17:41:29.633Z,23.48
2022-12-23T17:43:56.829Z,13.73
2022-12-23T17:46:23.899Z,18.52
2022-12-23T17:48:51.393Z,24.73
2022-12-23T17:51:20.466Z,20.27
2022-12-23T17:53:50.329Z,12.07
2022-12-23T17:56:21.475Z,17.05
2022-12-23T17:58:49.115Z,21.42
2022-12-23T18:01:15.928Z,15.55
2022-12-23T18:03:42.761Z,16.90
2022-12-23T18:06:16.762Z,24.27
2022-12-23T18:11:19.395Z,19.38
2022-12-23T18:13:47.347Z,24.45
2022-12-23T18:16:14.147Z,22.23
2022-12-23T18:18:46.167Z,17.45
2022-12-23T18:21:21.752Z,18.58
2022-12-23T18:23:48.550Z,21.02
2022-12-23T18:26:15.574Z,21.42
2022-12-23T18:28:43.107Z,21.73
2022-12-23T18:31:21.021Z,22.60
2022-12-23T18:33:49.010Z,26.75
2022-12-23T18:36:25.589Z,21.10
2022-12-23T18:38:52.682Z,24.92
2022-12-23T18:41:20.308Z,21.17
2022-12-23T18:43:47.293Z,14.55
2022-12-23T18:46:14.043Z,25.90
2022-12-23T18:48:40.829Z,20.50
2022-12-23T18:51:07.839Z,20.48
2022-12-23T18:53:35.899Z,18.83
2022-12-23T18:56:02.591Z,22.00
2022-12-23T18:58:29.388Z,17.42
2022-12-23T19:00:56.929Z,15.57
2022-12-23T19:03:28.581Z,20.38
2022-12-23T19:05:56.014Z,19.65
2022-12-23T19:08:27.031Z,19.50
2022-12-23T19:10:54.965Z,16.05
2022-12-23T19:13:23.083Z,19.73
2022-12-23T19:15:50.093Z,25.40
2022-12-23T19:18:18.989Z,23.50
2022-12-23T19:20:46.095Z,23.92
2022-12-23T19:23:12.931Z,31.75
2022-12-23T19:25:50.785Z,20.05
2022-12-23T19:28:21.656Z,20.60
2022-12-23T19:30:48.671Z,26.02
2022-12-23T19:33:15.617Z,24.13
2022-12-23T19:35:42.900Z,25.05
2022-12-23T19:38:12.291Z,19.75
2022-12-23T19:40:40.233Z,26.45
2022-12-23T19:43:07.967Z,24.48
2022-12-23T19:45:34.742Z,22.10
2022-12-23T19:48:02.981Z,37.28
2022-12-23T19:50:30.369Z,23.85
2022-12-23T19:52:57.488Z,30.20
2022-12-23T19:55:24.313Z,23.88
2022-12-23T19:57:52.438Z,22.95
2022-12-23T20:00:19.349Z,28.60
2022-12-23T20:02:46.211Z,28.05
2022-12-23T20:05:13.266Z,37.85
2022-12-23T20:07:40.042Z,18.55
2022-12-23T20:10:08.874Z,30.48
2022-12-23T20:12:35.659Z,35.42
2022-12-23T20:15:03.971Z,29.92
2022-12-23T20:17:30.751Z,29.77
2022-12-23T20:19:57.541Z,21.00
2022-12-23T20:22:24.371Z,24.23
2022-12-23T20:24:51.690Z,33.55
2022-12-23T20:27:24.185Z,25.10
2022-12-23T20:29:52.993Z,32.33
2022-12-23T20:32:19.674Z,45.63
2022-12-23T20:34:48.313Z,26.50
2022-12-23T20:37:16.897Z,25.95
2022-12-23T20:39:43.639Z,33.28
2022-12-23T20:42:10.386Z,27.38
2022-12-23T20:44:37.729Z,32.05
2022-12-23T20:47:05.738Z,29.00
2022-12-23T20:49:32.715Z,24.20
2022-12-23T20:51:59.976Z,36.53
2022-12-23T20:54:32.637Z,40.40
2022-12-23T20:57:01.625Z,31.60
2022-12-23T20:59:28.596Z,41.67
2022-12-23T21:01:55.458Z,35.58
2022-12-23T21:04:24.339Z,33.33
2022-12-23T21:06:51.199Z,45.75
2022-12-23T21:09:18.091Z,41.00
2022-12-23T21:11:46.093Z,31.25
2022-12-23T21:14:13.147Z,30.02
2022-12-23T21:16:40.372Z,33.38
2022-12-23T21:19:09.486Z,38.13
2022-12-23T21:21:36.404Z,34.80
2022-12-23T21:24:04.545Z,38.80
2022-12-23T21:26:32.200Z,38.60
2022-12-23T21:28:59.653Z,33.05
2022-12-23T21:31:27.561Z,34.75
2022-12-23T21:33:54.615Z,27.90
2022-12-23T21:36:22.773Z,29.15
2022-12-23T21:38:49.788Z,25.77
2022-12-23T21:41:24.324Z,34.45
2022-12-23T21:43:51.863Z,36.30
2022-12-23T21:46:20.381Z,30.63
2022-12-23T21:48:47.454Z,31.65
2022-12-23T21:51:18.035Z,27.10
2022-12-23T21:53:45.413Z,26.83
2022-12-23T21:56:17.553Z,33.55
2022-12-23T21:58:45.425Z,18.25
2022-12-23T22:01:17.835Z,38.80
2022-12-23T22:03:45.920Z,24.63
2022-12-23T22:06:20.311Z,21.98
2022-12-23T22:08:47.169Z,32.30
2022-12-23T22:11:15.642Z,28.85
2022-12-23T22:13:42.587Z,23.85
2022-12-23T22:16:11.063Z,30.17
2022-12-23T22:18:38.274Z,26.02
2022-12-23T22:21:09.485Z,23.88
2022-12-23T22:23:37.092Z,19.50
2022-12-23T22:26:04.294Z,24.08
2022-12-23T22:28:32.152Z,18.30
2022-12-23T22:31:14.730Z,28.08
2022-12-23T22:33:41.497Z,23.55
2022-12-23T22:36:15.314Z,22.05
2022-12-23T22:38:42.181Z,28.80
2022-12-23T22:41:10.586Z,33.65
2022-12-23T22:43:37.539Z,23.70
2022-12-23T22:46:04.624Z,24.90
2022-12-23T22:48:31.471Z,26.52
2022-12-23T22:51:02.384Z,31.15
2022-12-23T22:53:30.030Z,23.40
2022-12-23T22:55:58.313Z,27.20
2022-12-23T22:58:25.225Z,34.60
2022-12-23T23:00:52.054Z,25.17
2022-12-23T23:03:19.825Z,27.75
2022-12-23T23:06:07.200Z,26.45
2022-12-23T23:08:34.326Z,27.55
2022-12-23T23:11:02.188Z,37.20
2022-12-23T23:13:30.755Z,34.47
2022-12-23T23:15:57.427Z,31.13
2022-12-23T23:18:24.683Z,24.90
2022-12-23T23:20:51.580Z,22.48
2022-12-23T23:23:18.335Z,40.88
2022-12-23T23:25:45.181Z,31.45
2022-12-23T23:28:12.041Z,33.08
2022-12-23T23:30:39.720Z,31.13
2022-12-23T23:33:07.291Z,33.30
2022-12-23T23:35:34.767Z,33.60
2022-12-23T23:38:01.536Z,22.48
2022-12-23T23:40:28.326Z,28.50
2022-12-23T23:42:55.168Z,38.13
2022-12-23T23:45:21.986Z,14.65
2022-12-23T23:47:48.777Z,29.88
2022-12-23T23:50:15.499Z,28.48
2022-12-23T23:52:42.392Z,22.83
2022-12-23T23:55:09.548Z,25.15
2022-12-23T23:57:36.289Z,22.60
